Kansk, Russia
Current Conditions -  °F | °C
As of 9:00 AM on Saturday 29 Nov 2014 (Local Time) from UNKL Reporting Station
Broken Clouds Broken Clouds  
Wind Chill: -42°   Ceiling: 17000
Heat Index: -27°   Visibility: 5mi
Dew Point: -38°   Wind: 4mph
Humidity: 56%   Direction: 180°S
Pressure: 30.8"   Gusts: NA
Location:  56.2°N, 95.71°E
Report Text: UNKL 290200Z 18002MPS 8000 BKN170 M33/M39 Q1043 NOSIG RMKQFE756 29////60
Loading
Personal Weather Stations






























Interactive Weather Map New forecast layout! Learn more

10-Day Weather Forecast

Advertisements
Track Severe Weather on mobile